createdAt,value
2022-11-29T00:01:39.286Z,40.67
2022-11-29T00:04:06.394Z,44.65
2022-11-29T00:06:34.785Z,41.03
2022-11-29T00:09:08.299Z,42.38
2022-11-29T00:11:56.204Z,38.78
2022-11-29T00:16:55.303Z,38.78
2022-11-29T00:19:24.723Z,40.13
2022-11-29T00:21:54.077Z,45.83
2022-11-29T00:26:55.171Z,40.17
2022-11-29T00:29:21.907Z,39.35
2022-11-29T00:31:48.667Z,42.53
2022-11-29T00:34:15.720Z,45.97
2022-11-29T00:36:42.442Z,37.15
2022-11-29T00:39:12.417Z,51.22
2022-11-29T00:41:42.225Z,45.25
2022-11-29T00:44:16.791Z,39.30
2022-11-29T00:46:51.878Z,38.95
2022-11-29T00:49:18.595Z,39.25
2022-11-29T00:51:45.906Z,46.50
2022-11-29T00:54:12.757Z,37.85
2022-11-29T00:56:39.715Z,41.13
2022-11-29T00:59:08.846Z,45.90
2022-11-29T01:01:37.846Z,39.28
2022-11-29T01:04:07.184Z,36.05
2022-11-29T01:06:36.414Z,36.65
2022-11-29T01:09:03.778Z,41.10
2022-11-29T01:11:33.237Z,37.70
2022-11-29T01:16:32.422Z,33.45
2022-11-29T01:19:01.454Z,39.58
2022-11-29T01:21:28.587Z,35.13
2022-11-29T01:23:55.624Z,35.25
2022-11-29T01:26:25.426Z,34.13
2022-11-29T01:28:54.061Z,35.97
2022-11-29T01:31:32.193Z,40.33
2022-11-29T01:34:02.223Z,34.88
2022-11-29T01:36:29.564Z,37.65
2022-11-29T01:38:59.234Z,37.00
2022-11-29T01:41:28.250Z,37.22
2022-11-29T01:43:59.929Z,33.70
2022-11-29T01:46:32.074Z,32.03
2022-11-29T01:49:20.336Z,35.17
2022-11-29T01:52:04.074Z,35.22
2022-11-29T01:54:32.461Z,30.90
2022-11-29T01:57:02.616Z,28.30
2022-11-29T01:59:32.139Z,28.10
2022-11-29T02:02:12.512Z,28.90
2022-11-29T02:04:44.162Z,30.92
2022-11-29T02:07:13.947Z,32.08
2022-11-29T02:09:40.701Z,31.00
2022-11-29T02:12:33.435Z,34.13
2022-11-29T02:15:06.956Z,33.92
2022-11-29T02:18:12.793Z,32.53
2022-11-29T02:21:07.485Z,25.55
2022-11-29T02:23:52.494Z,28.38
2022-11-29T02:26:28.173Z,29.63
2022-11-29T02:29:32.037Z,27.70
2022-11-29T02:32:20.602Z,26.98
2022-11-29T02:35:00.714Z,25.13
2022-11-29T02:37:50.948Z,28.20
2022-11-29T02:40:57.218Z,26.42
2022-11-29T02:43:42.137Z,30.58
2022-11-29T02:46:11.818Z,24.77
2022-11-29T02:48:58.052Z,25.83
2022-11-29T02:51:50.877Z,25.40
2022-11-29T02:54:29.929Z,27.67
2022-11-29T02:57:02.182Z,26.83
2022-11-29T02:59:59.670Z,26.70
2022-11-29T03:02:43.422Z,30.05
2022-11-29T03:05:09.902Z,25.98
2022-11-29T03:07:51.978Z,27.10
2022-11-29T03:10:38.159Z,24.77
2022-11-29T03:13:20.271Z,24.15
2022-11-29T03:16:23.355Z,29.33
2022-11-29T03:18:56.247Z,26.20
2022-11-29T03:21:22.769Z,24.80
2022-11-29T03:24:02.162Z,30.08
2022-11-29T03:26:40.718Z,26.77
2022-11-29T03:29:16.198Z,31.80
2022-11-29T03:31:52.817Z,29.08
2022-11-29T03:34:52.993Z,25.30
2022-11-29T03:37:57.786Z,25.08
2022-11-29T03:40:48.869Z,24.60
2022-11-29T03:43:37.223Z,26.25
2022-11-29T03:46:12.543Z,27.67
2022-11-29T03:49:01.545Z,25.67
2022-11-29T03:51:54.669Z,24.15
2022-11-29T03:54:43.218Z,26.50
2022-11-29T03:57:14.069Z,21.90
2022-11-29T04:00:10.896Z,26.33
2022-11-29T04:02:37.422Z,25.55
2022-11-29T04:05:31.011Z,24.23
2022-11-29T04:08:07.313Z,30.60
2022-11-29T04:11:12.100Z,29.92
2022-11-29T04:13:53.479Z,27.92
2022-11-29T04:16:25.302Z,25.98
2022-11-29T04:19:21.061Z,29.75
2022-11-29T04:22:14.658Z,26.50
2022-11-29T04:25:02.377Z,24.85
2022-11-29T04:27:38.711Z,24.33
2022-11-29T04:30:13.939Z,28.85
2022-11-29T04:33:17.876Z,26.70
2022-11-29T04:36:28.916Z,32.40
2022-11-29T04:39:26.580Z,29.55
2022-11-29T04:42:11.766Z,27.52
2022-11-29T04:45:19.235Z,28.25
2022-11-29T04:48:04.085Z,36.10
2022-11-29T04:50:58.162Z,29.92
2022-11-29T04:56:28.494Z,30.48
2022-11-29T04:59:10.050Z,30.50
2022-11-29T05:02:08.644Z,33.58
2022-11-29T05:04:55.457Z,27.33
2022-11-29T05:07:31.502Z,30.02
2022-11-29T05:10:03.657Z,29.73
2022-11-29T05:12:38.749Z,30.45
2022-11-29T05:15:35.177Z,32.78
2022-11-29T05:18:42.068Z,32.97
2022-11-29T05:21:20.527Z,29.50
2022-11-29T05:24:20.109Z,32.10
2022-11-29T05:27:15.294Z,28.63
2022-11-29T05:30:11.346Z,32.63
2022-11-29T05:32:56.943Z,31.23
2022-11-29T05:35:47.866Z,28.25
2022-11-29T05:38:40.500Z,25.88
2022-11-29T05:41:31.460Z,28.90
2022-11-29T05:44:15.935Z,30.40
2022-11-29T05:46:48.244Z,30.05
2022-11-29T05:49:33.516Z,29.08
2022-11-29T05:52:20.760Z,26.95
2022-11-29T05:55:17.264Z,27.75
2022-11-29T05:57:55.397Z,27.77
2022-11-29T06:00:26.919Z,27.27
2022-11-29T06:02:59.826Z,29.48
2022-11-29T06:05:40.364Z,31.77
2022-11-29T06:08:22.719Z,27.42
2022-11-29T06:11:00.964Z,32.60
2022-11-29T06:13:47.189Z,27.00
2022-11-29T06:16:32.806Z,28.45
2022-11-29T06:19:25.408Z,28.00
2022-11-29T06:22:39.902Z,33.78
2022-11-29T06:25:18.718Z,31.80
2022-11-29T06:28:02.238Z,27.83
2022-11-29T06:31:00.710Z,26.30
2022-11-29T06:33:35.498Z,29.80
2022-11-29T06:36:20.218Z,30.60
2022-11-29T06:38:49.580Z,29.45
2022-11-29T06:41:22.970Z,43.15
2022-11-29T06:43:53.323Z,28.55
2022-11-29T06:46:29.200Z,28.45
2022-11-29T06:49:02.523Z,25.75
2022-11-29T06:51:33.381Z,31.88
2022-11-29T06:54:31.871Z,25.27
2022-11-29T06:57:35.659Z,29.48
2022-11-29T07:00:12.673Z,33.65
2022-11-29T07:02:48.419Z,33.13
2022-11-29T07:05:29.426Z,33.33
2022-11-29T07:08:03.584Z,32.35
2022-11-29T07:10:36.174Z,32.38
2022-11-29T07:13:05.533Z,35.05
2022-11-29T07:15:39.370Z,33.75
2022-11-29T07:18:10.856Z,31.65
2022-11-29T07:20:59.074Z,30.60
2022-11-29T07:23:31.306Z,32.88
2022-11-29T07:26:14.980Z,32.70
2022-11-29T07:28:47.782Z,33.50
2022-11-29T07:31:25.143Z,37.85
2022-11-29T07:34:24.167Z,33.22
2022-11-29T07:37:02.139Z,36.03
2022-11-29T07:39:43.386Z,37.53
2022-11-29T07:42:26.494Z,40.85
2022-11-29T07:45:01.722Z,36.13
2022-11-29T07:47:32.576Z,35.70
2022-11-29T07:50:07.215Z,33.20
2022-11-29T07:52:33.798Z,35.92
2022-11-29T07:55:02.607Z,32.78
2022-11-29T07:57:29.150Z,31.35
2022-11-29T07:59:57.920Z,34.63
2022-11-29T08:02:31.815Z,34.25
2022-11-29T08:04:58.640Z,34.92
2022-11-29T08:07:27.832Z,36.83
2022-11-29T08:09:54.365Z,37.33
2022-11-29T08:12:23.621Z,34.00
2022-11-29T08:14:52.508Z,39.58
2022-11-29T08:17:19.110Z,34.45
2022-11-29T08:19:45.671Z,40.92
2022-11-29T08:22:14.786Z,42.95
2022-11-29T08:24:41.388Z,38.33
2022-11-29T08:27:07.973Z,35.50
2022-11-29T08:29:34.583Z,37.25
2022-11-29T08:32:06.356Z,34.38
2022-11-29T08:34:32.925Z,35.83
2022-11-29T08:37:01.799Z,33.80
2022-11-29T08:39:28.410Z,35.17
2022-11-29T08:41:55.040Z,34.17
2022-11-29T08:44:21.867Z,36.33
2022-11-29T08:47:07.160Z,33.22
2022-11-29T08:49:33.765Z,34.47
2022-11-29T08:52:18.992Z,35.60
2022-11-29T08:54:48.144Z,37.08
2022-11-29T09:00:01.259Z,28.85
2022-11-29T09:02:27.858Z,28.13
2022-11-29T09:04:56.582Z,31.02
2022-11-29T09:07:23.353Z,29.55
2022-11-29T09:09:54.825Z,36.88
2022-11-29T09:12:23.865Z,33.22
2022-11-29T09:14:53.012Z,31.60
2022-11-29T09:17:19.521Z,32.20
2022-11-29T09:19:49.139Z,31.17
2022-11-29T09:22:18.334Z,33.15
2022-11-29T09:24:47.680Z,33.53
2022-11-29T09:27:16.556Z,32.13
2022-11-29T09:29:43.088Z,34.92
2022-11-29T09:32:09.856Z,37.08
2022-11-29T09:34:36.891Z,37.67
2022-11-29T09:37:05.831Z,36.35
2022-11-29T09:39:34.628Z,38.92
2022-11-29T09:42:12.548Z,38.15
2022-11-29T09:44:48.372Z,38.83
2022-11-29T09:47:17.705Z,35.10
2022-11-29T09:50:08.832Z,38.22
2022-11-29T09:52:59.104Z,41.35
2022-11-29T09:55:47.748Z,37.78
2022-11-29T09:58:20.856Z,38.80
2022-11-29T10:01:05.355Z,35.20
2022-11-29T10:03:38.595Z,39.70
2022-11-29T10:06:24.433Z,38.97
2022-11-29T10:09:06.178Z,37.47
2022-11-29T10:12:09.922Z,32.88
2022-11-29T10:14:46.127Z,38.15
2022-11-29T10:17:21.004Z,36.42
2022-11-29T10:19:52.992Z,35.97
2022-11-29T10:22:38.295Z,36.22
2022-11-29T10:25:10.418Z,26.83
2022-11-29T10:27:40.311Z,33.03
2022-11-29T10:30:16.015Z,32.70
2022-11-29T10:32:48.533Z,27.88
2022-11-29T10:35:19.443Z,33.42
2022-11-29T10:38:22.698Z,32.22
2022-11-29T10:40:41.893Z,35.83
2022-11-29T10:43:09.100Z,34.67
2022-11-29T10:45:40.502Z,28.52
2022-11-29T10:48:11.953Z,34.97
2022-11-29T10:50:42.777Z,36.72
2022-11-29T10:53:31.543Z,30.27
2022-11-29T10:56:19.064Z,33.15
2022-11-29T10:59:03.230Z,37.22
2022-11-29T11:01:37.459Z,29.50
2022-11-29T11:04:10.911Z,38.28
2022-11-29T11:06:55.779Z,32.88
2022-11-29T11:09:42.520Z,36.63
2022-11-29T11:12:15.031Z,37.28
2022-11-29T11:14:45.751Z,35.75
2022-11-29T11:17:32.869Z,35.63
2022-11-29T11:20:08.465Z,34.00
2022-11-29T11:25:27.792Z,37.83
2022-11-29T11:27:54.518Z,35.88
2022-11-29T11:30:27.567Z,37.47
2022-11-29T11:33:24.473Z,37.53
2022-11-29T11:36:09.854Z,42.03
2022-11-29T11:38:46.994Z,32.70
2022-11-29T11:41:48.725Z,39.13
2022-11-29T11:44:49.692Z,35.75
2022-11-29T11:47:18.519Z,37.35
2022-11-29T11:49:54.613Z,34.17
2022-11-29T11:52:27.708Z,32.45
2022-11-29T11:54:57.987Z,34.72
2022-11-29T11:57:28.471Z,32.03
2022-11-29T12:00:06.486Z,38.72
2022-11-29T12:02:41.076Z,38.67
2022-11-29T12:05:18.314Z,35.22
2022-11-29T12:08:08.972Z,36.83
2022-11-29T12:10:42.470Z,30.55
2022-11-29T12:13:20.876Z,34.40
2022-11-29T12:15:51.272Z,34.47
2022-11-29T12:18:38.082Z,35.33
2022-11-29T12:21:15.078Z,32.50
2022-11-29T12:24:00.329Z,39.35
2022-11-29T12:26:56.558Z,31.10
2022-11-29T12:29:27.642Z,36.10
2022-11-29T12:32:33.258Z,37.95
2022-11-29T12:35:21.098Z,33.50
2022-11-29T12:40:33.525Z,36.17
2022-11-29T12:43:15.403Z,35.50
2022-11-29T12:45:56.007Z,37.55
2022-11-29T12:48:41.427Z,36.55
2022-11-29T12:51:26.289Z,35.75
2022-11-29T12:54:12.705Z,31.63
2022-11-29T12:56:54.389Z,36.63
2022-11-29T13:02:21.521Z,39.00
2022-11-29T13:05:22.573Z,37.22
2022-11-29T13:08:00.501Z,36.45
2022-11-29T13:11:06.164Z,37.13
2022-11-29T13:13:44.096Z,39.05
2022-11-29T13:16:48.227Z,38.40
2022-11-29T13:19:37.824Z,39.08
2022-11-29T13:22:18.885Z,45.97
2022-11-29T13:25:01.343Z,45.35
2022-11-29T13:27:40.148Z,38.47
2022-11-29T13:30:09.503Z,40.97
2022-11-29T13:35:30.868Z,43.75
2022-11-29T13:38:04.072Z,47.00
2022-11-29T13:40:56.659Z,38.03
2022-11-29T13:43:49.208Z,41.33
2022-11-29T13:47:02.544Z,40.88
2022-11-29T13:50:26.289Z,37.65
2022-11-29T13:53:19.286Z,42.30
2022-11-29T13:56:06.569Z,41.05
2022-11-29T13:58:37.557Z,44.50
2022-11-29T14:01:12.956Z,42.92
2022-11-29T14:04:00.715Z,41.78
2022-11-29T14:06:36.474Z,40.13
2022-11-29T14:09:20.767Z,39.28
2022-11-29T14:11:52.778Z,38.38
2022-11-29T14:14:24.624Z,38.08
2022-11-29T14:16:55.869Z,43.45
2022-11-29T14:19:34.910Z,41.15
2022-11-29T14:22:09.772Z,48.05
2022-11-29T14:24:38.713Z,40.33
2022-11-29T14:27:16.771Z,44.75
2022-11-29T14:29:58.771Z,40.28
2022-11-29T14:32:59.696Z,43.67
2022-11-29T14:35:37.718Z,40.97
2022-11-29T14:38:36.481Z,40.97
2022-11-29T14:41:14.035Z,46.40
2022-11-29T14:43:43.420Z,44.50
2022-11-29T14:48:55.236Z,41.85
2022-11-29T14:51:24.390Z,37.75
2022-11-29T14:54:22.120Z,45.88
2022-11-29T14:56:51.122Z,44.13
2022-11-29T14:59:45.958Z,40.88
2022-11-29T15:02:21.840Z,42.22
2022-11-29T15:04:52.161Z,48.05
2022-11-29T15:07:25.520Z,41.97
2022-11-29T15:10:00.515Z,41.58
2022-11-29T15:12:38.243Z,39.70
2022-11-29T15:15:21.730Z,43.97
2022-11-29T15:17:59.260Z,44.63
2022-11-29T15:20:55.640Z,44.05
2022-11-29T15:23:22.192Z,43.53
2022-11-29T15:25:51.676Z,39.80
2022-11-29T15:31:09.310Z,50.53
2022-11-29T15:33:41.193Z,45.38
2022-11-29T15:36:22.153Z,41.63
2022-11-29T15:38:49.900Z,41.00
2022-11-29T15:41:34.722Z,44.42
2022-11-29T15:44:06.764Z,38.90
2022-11-29T15:46:37.589Z,45.63
2022-11-29T15:49:28.417Z,44.75
2022-11-29T15:52:05.696Z,43.95
2022-11-29T15:54:34.854Z,44.35
2022-11-29T15:57:16.758Z,45.60
2022-11-29T15:59:51.141Z,43.03
2022-11-29T16:02:19.883Z,43.88
2022-11-29T16:04:51.422Z,40.60
2022-11-29T16:07:21.957Z,40.08
2022-11-29T16:09:57.653Z,47.42
2022-11-29T16:12:24.782Z,43.92
2022-11-29T16:14:56.505Z,44.97
2022-11-29T16:17:29.733Z,43.72
2022-11-29T16:20:23.508Z,47.78
2022-11-29T16:23:16.898Z,43.90
2022-11-29T16:25:56.218Z,42.50
2022-11-29T16:28:25.470Z,38.45
2022-11-29T16:30:54.957Z,44.72
2022-11-29T16:33:24.426Z,47.55
2022-11-29T16:35:51.783Z,42.65
2022-11-29T16:38:21.935Z,49.13
2022-11-29T16:41:20.101Z,41.38
2022-11-29T16:43:54.239Z,45.78
2022-11-29T16:46:20.785Z,44.67
2022-11-29T16:48:51.591Z,40.95
2022-11-29T16:51:27.089Z,44.03
2022-11-29T16:53:57.603Z,47.88
2022-11-29T16:56:29.431Z,43.40
2022-11-29T16:59:20.710Z,44.00
2022-11-29T17:01:51.344Z,47.90
2022-11-29T17:04:23.751Z,42.50
2022-11-29T17:06:52.994Z,45.35
2022-11-29T17:09:23.502Z,44.50
2022-11-29T17:11:50.236Z,49.65
2022-11-29T17:14:19.191Z,46.05
2022-11-29T17:16:52.044Z,47.97
2022-11-29T17:19:23.821Z,44.53
2022-11-29T17:21:54.051Z,47.55
2022-11-29T17:24:24.827Z,46.10
2022-11-29T17:26:51.373Z,44.88
2022-11-29T17:29:20.755Z,43.42
2022-11-29T17:34:17.050Z,41.08
2022-11-29T17:36:46.923Z,43.35
2022-11-29T17:39:20.009Z,42.85
2022-11-29T17:41:46.668Z,48.38
2022-11-29T17:44:18.172Z,38.65
2022-11-29T17:46:45.007Z,49.08
2022-11-29T17:49:18.682Z,40.55
2022-11-29T17:51:53.461Z,42.28
2022-11-29T17:54:21.692Z,41.05
2022-11-29T17:56:48.487Z,43.03
2022-11-29T17:59:21.141Z,41.13
2022-11-29T18:01:52.915Z,39.35
2022-11-29T18:04:22.157Z,45.50
2022-11-29T18:06:53.719Z,42.55
2022-11-29T18:09:20.297Z,40.92
2022-11-29T18:11:50.937Z,44.92
2022-11-29T18:14:23.730Z,40.63
2022-11-29T18:16:51.523Z,42.03
2022-11-29T18:19:22.596Z,44.63
2022-11-29T18:21:50.344Z,43.45
2022-11-29T18:24:17.365Z,44.53
2022-11-29T18:26:46.521Z,45.42
2022-11-29T18:29:13.451Z,47.22
2022-11-29T18:31:42.672Z,45.80
2022-11-29T18:34:11.035Z,42.55
2022-11-29T18:36:44.407Z,45.63
2022-11-29T18:39:15.737Z,46.17
2022-11-29T18:41:44.926Z,49.47
2022-11-29T18:44:14.415Z,47.85
2022-11-29T18:46:45.731Z,44.67
2022-11-29T18:49:15.402Z,48.15
2022-11-29T18:51:48.060Z,51.35
2022-11-29T18:54:18.336Z,45.35
2022-11-29T18:56:46.105Z,48.72
2022-11-29T18:59:16.801Z,50.65
2022-11-29T19:01:48.256Z,44.08
2022-11-29T19:04:19.283Z,45.38
2022-11-29T19:06:49.458Z,50.30
2022-11-29T19:09:21.785Z,47.53
2022-11-29T19:11:51.220Z,47.95
2022-11-29T19:16:49.401Z,46.42
2022-11-29T19:19:21.360Z,51.05
2022-11-29T19:21:48.371Z,47.53
2022-11-29T19:24:17.643Z,46.95
2022-11-29T19:26:46.410Z,46.20
2022-11-29T19:29:14.204Z,49.38
2022-11-29T19:31:41.900Z,43.90
2022-11-29T19:34:11.554Z,45.28
2022-11-29T19:36:43.042Z,46.05
2022-11-29T19:39:12.223Z,46.88
2022-11-29T19:41:39.059Z,52.38
2022-11-29T19:44:07.798Z,43.58
2022-11-29T19:46:38.992Z,46.33
2022-11-29T19:49:09.889Z,50.58
2022-11-29T19:51:37.491Z,43.20
2022-11-29T19:54:07.269Z,44.20
2022-11-29T19:56:42.321Z,45.00
2022-11-29T19:59:11.378Z,43.15
2022-11-29T20:01:41.541Z,50.15
2022-11-29T20:04:10.645Z,48.78
2022-11-29T20:06:37.368Z,48.35
2022-11-29T20:09:04.128Z,47.67
2022-11-29T20:11:30.770Z,42.55
2022-11-29T20:14:02.208Z,45.22
2022-11-29T20:16:31.708Z,37.83
2022-11-29T20:19:02.110Z,45.35
2022-11-29T20:21:32.962Z,45.13
2022-11-29T20:24:05.484Z,45.10
2022-11-29T20:26:34.359Z,41.88
2022-11-29T20:29:03.763Z,39.13
2022-11-29T20:33:58.747Z,41.85
2022-11-29T20:36:38.221Z,41.00
2022-11-29T20:39:36.931Z,40.78
2022-11-29T20:42:34.388Z,41.00
2022-11-29T20:45:02.666Z,40.20
2022-11-29T20:47:44.535Z,31.65
2022-11-29T20:50:23.119Z,35.00
2022-11-29T20:52:57.024Z,32.58
2022-11-29T20:55:23.789Z,29.88
2022-11-29T20:57:52.626Z,31.88
2022-11-29T21:00:19.871Z,26.88
2022-11-29T21:02:48.868Z,33.63
2022-11-29T21:05:16.845Z,25.92
2022-11-29T21:07:44.024Z,31.48
2022-11-29T21:10:11.126Z,40.67
2022-11-29T21:12:40.903Z,28.02
2022-11-29T21:15:11.061Z,32.45
2022-11-29T21:17:38.065Z,32.50
2022-11-29T21:20:05.743Z,28.30
2022-11-29T21:22:38.439Z,33.03
2022-11-29T21:25:40.074Z,29.33
2022-11-29T21:28:14.200Z,25.98
2022-11-29T21:30:44.124Z,29.20
2022-11-29T21:33:13.531Z,25.85
2022-11-29T21:35:40.266Z,26.00
2022-11-29T21:38:13.450Z,24.30
2022-11-29T21:40:40.157Z,30.85
2022-11-29T21:43:09.831Z,26.52
2022-11-29T21:45:39.431Z,27.95
2022-11-29T21:48:38.507Z,24.27
2022-11-29T21:51:09.233Z,26.15
2022-11-29T21:53:39.168Z,31.00
2022-11-29T21:56:10.483Z,25.55
2022-11-29T21:58:40.410Z,29.10
2022-11-29T22:01:10.486Z,26.45
2022-11-29T22:03:37.160Z,31.65
2022-11-29T22:06:09.635Z,25.25
2022-11-29T22:08:43.520Z,25.58
2022-11-29T22:11:12.606Z,29.42
2022-11-29T22:13:59.483Z,27.65
2022-11-29T22:16:26.261Z,26.92
2022-11-29T22:18:55.531Z,26.85
2022-11-29T22:21:22.438Z,26.73
2022-11-29T22:23:49.280Z,26.10
2022-11-29T22:26:16.043Z,24.27
2022-11-29T22:28:47.448Z,23.40
2022-11-29T22:31:16.488Z,22.98
2022-11-29T22:33:43.158Z,28.30
2022-11-29T22:36:14.215Z,22.60
2022-11-29T22:38:45.772Z,24.65
2022-11-29T22:41:18.678Z,26.95
2022-11-29T22:43:48.510Z,23.55
2022-11-29T22:46:23.969Z,24.80
2022-11-29T22:49:00.874Z,24.55
2022-11-29T22:51:29.021Z,29.67
2022-11-29T22:53:57.730Z,24.63
2022-11-29T22:56:27.213Z,25.48
2022-11-29T22:58:53.749Z,25.67
2022-11-29T23:01:27.669Z,24.38
2022-11-29T23:03:57.069Z,23.33
2022-11-29T23:06:28.527Z,23.80
2022-11-29T23:09:00.176Z,22.77
2022-11-29T23:11:30.574Z,22.23
2022-11-29T23:13:59.699Z,23.00
2022-11-29T23:16:29.287Z,26.33
2022-11-29T23:19:00.287Z,23.17
2022-11-29T23:21:35.965Z,24.08
2022-11-29T23:24:05.287Z,23.92
2022-11-29T23:29:09.287Z,25.48
2022-11-29T23:31:39.214Z,20.58
2022-11-29T23:34:08.334Z,22.63
2022-11-29T23:36:37.269Z,23.65
2022-11-29T23:39:09.895Z,25.27
2022-11-29T23:41:36.896Z,22.27
2022-11-29T23:44:08.773Z,24.33
2022-11-29T23:46:40.592Z,23.38
2022-11-29T23:49:07.811Z,21.13
2022-11-29T23:51:36.433Z,23.98
2022-11-29T23:54:05.381Z,19.63
2022-11-29T23:56:36.987Z,22.90
2022-11-29T23:59:08.283Z,20.45
